Time;durP1;ratioP1;P1;durP2;ratioP2;P2;SDS_P1;SDS_P2;PMS_P1;PMS_P2;Temp;Humidity;BMP_temperature;BMP_pressure;BME280_temperature;BME280_humidity;BME280_pressure;Samples;Min_cycle;Max_cycle;Signal;HPM_P1;HPM_P2
2022/12/06 00:02:11;;;;;;;51.78;15.23;;;5.50;86.90;;;;;;5094547;28;20110;-15
2022/12/06 00:04:37;;;;;;;36.03;15.82;;;5.40;87.00;;;;;;5094544;28;20036;-17
2022/12/06 00:07:03;;;;;;;27.80;14.95;;;5.40;87.10;;;;;;5094295;28;20053;-15
2022/12/06 00:09:31;;;;;;;74.28;19.83;;;5.40;87.20;;;;;;5094708;28;20020;-15
2022/12/06 00:11:57;;;;;;;64.97;18.65;;;5.40;87.30;;;;;;5094420;28;20484;-15
2022/12/06 00:14:24;;;;;;;85.85;18.15;;;5.40;87.40;;;;;;5094425;28;20024;-16
2022/12/06 00:16:50;;;;;;;68.88;17.48;;;5.40;87.40;;;;;;5094186;28;20016;-15
2022/12/06 00:19:19;;;;;;;54.90;14.38;;;5.40;87.30;;;;;;5094452;28;20056;-15
2022/12/06 00:21:46;;;;;;;40.28;15.73;;;5.30;87.10;;;;;;5094167;28;20065;-17
2022/12/06 00:24:17;;;;;;;71.43;14.85;;;5.20;87.20;;;;;;5094197;28;20471;-16
2022/12/06 00:26:45;;;;;;;28.33;14.45;;;5.20;87.30;;;;;;5149168;22;20055;-14
2022/12/06 00:29:14;;;;;;;39.83;14.32;;;5.20;87.30;;;;;;5114757;28;20454;-16
2022/12/06 00:31:40;;;;;;;70.68;16.55;;;5.10;87.40;;;;;;5173523;22;20059;-17
2022/12/06 00:34:06;;;;;;;84.10;16.58;;;5.10;87.50;;;;;;5074101;28;20020;-15
2022/12/06 00:36:35;;;;;;;108.72;16.45;;;5.10;87.50;;;;;;5072692;28;20038;-17
2022/12/06 00:39:05;;;;;;;50.75;15.98;;;5.10;87.50;;;;;;5073563;28;20020;-13
2022/12/06 00:41:31;;;;;;;108.70;17.80;;;5.10;87.60;;;;;;5073928;28;20111;-16
2022/12/06 00:43:57;;;;;;;94.90;17.30;;;5.10;87.60;;;;;;5073576;28;20221;-15
2022/12/06 00:46:26;;;;;;;97.03;16.48;;;5.10;87.50;;;;;;5218170;22;20047;-15
2022/12/06 00:48:55;;;;;;;30.60;10.88;;;5.00;87.50;;;;;;5113940;28;20019;-15
2022/12/06 00:51:22;;;;;;;28.35;11.85;;;4.90;87.40;;;;;;5169678;22;20056;-15
2022/12/06 00:53:48;;;;;;;48.67;12.38;;;4.90;87.30;;;;;;5073362;28;20024;-14
2022/12/06 00:56:15;;;;;;;47.92;12.20;;;4.90;87.60;;;;;;5073247;28;20025;-14
2022/12/06 00:58:41;;;;;;;40.72;12.02;;;4.90;87.60;;;;;;5073230;28;20028;-14
2022/12/06 01:01:20;;;;;;;71.28;16.08;;;4.90;87.50;;;;;;5073644;28;20070;-15
2022/12/06 01:03:50;;;;;;;81.13;15.05;;;4.80;87.40;;;;;;5073197;28;20494;-15
2022/12/06 01:06:17;;;;;;;63.10;14.88;;;4.80;87.40;;;;;;5073219;28;20032;-15
2022/12/06 01:08:58;;;;;;;18.58;9.93;;;4.60;87.30;;;;;;5055206;28;20391;-15
2022/12/06 01:11:26;;;;;;;26.08;10.30;;;4.60;87.40;;;;;;5073019;28;20352;-16
2022/12/06 01:13:53;;;;;;;18.65;9.98;;;4.60;87.40;;;;;;5073153;28;20060;-15
2022/12/06 01:16:25;;;;;;;34.75;11.25;;;4.60;87.50;;;;;;5073199;28;20027;-15
2022/12/06 01:18:53;;;;;;;32.22;11.48;;;4.60;87.70;;;;;;5073073;28;20037;-15
2022/12/06 01:21:20;;;;;;;23.92;11.27;;;4.60;87.60;;;;;;5072751;28;20099;-13
2022/12/06 01:23:47;;;;;;;42.35;13.18;;;4.60;87.50;;;;;;5072916;28;20035;-17
2022/12/06 01:26:19;;;;;;;18.63;10.55;;;4.50;87.50;;;;;;5072778;28;20025;-16
2022/12/06 01:28:45;;;;;;;25.13;11.13;;;4.40;87.40;;;;;;5055247;28;20475;-16
2022/12/06 01:31:13;;;;;;;18.23;9.75;;;4.40;87.40;;;;;;5072996;28;20040;-18
2022/12/06 01:36:05;;;;;;;42.53;13.75;;;4.40;87.60;;;;;;5201318;22;20076;-18
2022/12/06 01:38:31;;;;;;;24.65;10.75;;;4.40;87.60;;;;;;5052809;28;20494;-16
2022/12/06 01:40:57;;;;;;;28.92;13.43;;;4.30;87.50;;;;;;5052436;28;20037;-17
2022/12/06 01:43:35;;;;;;;19.55;10.93;;;4.30;87.60;;;;;;5134632;22;20052;-16
2022/12/06 01:46:46;;;;;;;22.63;9.43;;;4.30;87.70;;;;;;5092976;28;20024;-17
2022/12/06 01:49:12;;;;;;;28.13;11.43;;;4.40;87.70;;;;;;5088906;28;20032;-17
2022/12/06 01:51:43;;;;;;;38.88;14.70;;;4.40;87.80;;;;;;5091383;28;20036;-16
2022/12/06 01:54:12;;;;;;;38.75;15.68;;;4.40;87.80;;;;;;5092775;28;20489;-17
2022/12/06 01:56:40;;;;;;;30.33;13.82;;;4.40;87.80;;;;;;5092620;28;20114;-16
2022/12/06 01:59:08;;;;;;;44.60;15.48;;;4.50;87.80;;;;;;5091145;28;20109;-17
2022/12/06 02:01:36;;;;;;;36.05;13.57;;;4.40;87.70;;;;;;5092627;28;20020;-17
2022/12/06 02:04:02;;;;;;;30.77;12.52;;;4.40;87.60;;;;;;5092608;28;20079;-15
2022/12/06 02:06:31;;;;;;;40.83;15.45;;;4.30;87.50;;;;;;5093089;28;20111;-16
2022/12/06 02:09:00;;;;;;;34.47;12.70;;;4.20;87.50;;;;;;5092453;28;20511;-17
2022/12/06 02:11:26;;;;;;;35.22;13.88;;;4.10;87.50;;;;;;5093025;28;20115;-15
2022/12/06 02:13:54;;;;;;;25.75;11.93;;;4.10;87.50;;;;;;5092503;28;20032;-17
2022/12/06 02:16:48;;;;;;;27.48;11.18;;;4.00;87.60;;;;;;5092872;28;20073;-17
2022/12/06 02:19:27;;;;;;;;;;;3.90;87.70;;;;;;5093371;28;20039;-15
2022/12/06 02:22:07;;;;;;;22.35;9.55;;;3.90;87.80;;;;;;5092542;28;19930;-15
2022/12/06 02:24:58;;;;;;;28.23;12.38;;;3.90;87.80;;;;;;5092527;28;20039;-15
2022/12/06 02:27:43;;;;;;;14.13;9.20;;;3.80;87.80;;;;;;5092311;28;20082;-16
2022/12/06 02:30:43;;;;;;;16.05;9.18;;;3.80;87.80;;;;;;5092264;28;20031;-17
2022/12/06 02:33:18;;;;;;;14.07;9.07;;;3.80;88.00;;;;;;5092166;28;20088;-17
2022/12/06 02:35:59;;;;;;;26.05;12.02;;;3.70;88.00;;;;;;5092656;28;20085;-17
2022/12/06 02:38:35;;;;;;;25.50;9.60;;;3.70;88.00;;;;;;5092598;28;20073;-15
2022/12/06 02:41:09;;;;;;;18.50;7.78;;;3.60;87.90;;;;;;5092047;28;20533;-17
2022/12/06 02:43:39;;;;;;;;;;;3.50;87.90;;;;;;5092472;28;20095;-15
2022/12/06 02:46:08;;;;;;;36.58;8.77;;;3.50;88.00;;;;;;5091292;28;20044;-15
2022/12/06 02:48:35;;;;;;;35.05;11.13;;;3.40;88.00;;;;;;5092289;28;20040;-17
2022/12/06 02:51:08;;;;;;;14.50;8.23;;;3.40;88.00;;;;;;5092063;28;20099;-16
2022/12/06 02:53:37;;;;;;;17.55;8.45;;;3.30;88.00;;;;;;5092232;28;20028;-17
2022/12/06 02:56:03;;;;;;;24.75;9.23;;;3.30;88.10;;;;;;5092391;28;20052;-18
2022/12/06 02:58:37;;;;;;;19.77;9.13;;;3.30;88.00;;;;;;5092003;28;20028;-17
2022/12/06 03:01:25;;;;;;;19.75;8.40;;;3.20;88.00;;;;;;5095663;28;20012;-15
2022/12/06 03:04:17;;;;;;;19.30;9.52;;;3.20;88.00;;;;;;5096167;28;20460;-17
2022/12/06 03:07:12;;;;;;;16.73;8.77;;;3.20;88.10;;;;;;5095716;28;20036;-17
2022/12/06 03:09:51;;;;;;;15.77;10.02;;;3.20;88.20;;;;;;5064423;28;20028;-15
2022/12/06 03:12:49;;;;;;;15.48;8.40;;;3.30;88.40;;;;;;5095550;28;20085;-17
2022/12/06 03:15:37;;;;;;;23.67;10.43;;;3.30;88.40;;;;;;5096230;28;20028;-16
2022/12/06 03:18:20;;;;;;;14.57;7.68;;;3.40;88.50;;;;;;5095506;28;20407;-18
2022/12/06 03:20:50;;;;;;;20.50;11.25;;;3.60;88.50;;;;;;5095499;28;20032;-16
2022/12/06 03:23:38;;;;;;;15.88;9.00;;;3.70;88.60;;;;;;5095410;28;20463;-18
2022/12/06 03:26:05;;;;;;;31.52;12.70;;;3.80;88.60;;;;;;5094952;28;20060;-15
2022/12/06 03:28:36;;;;;;;22.52;11.25;;;3.90;88.60;;;;;;5095528;28;20024;-17
2022/12/06 03:31:08;;;;;;;17.83;10.18;;;3.90;88.50;;;;;;5095000;28;20111;-16
2022/12/06 03:33:41;;;;;;;19.83;9.30;;;4.00;88.50;;;;;;5094296;28;20020;-15
2022/12/06 03:36:12;;;;;;;37.28;13.18;;;4.10;88.60;;;;;;5094411;28;20071;-15
2022/12/06 03:38:51;;;;;;;44.80;15.43;;;4.20;88.50;;;;;;5093881;28;20123;-16
2022/12/06 03:41:21;;;;;;;40.45;15.55;;;4.20;88.40;;;;;;5095476;28;20048;-17
2022/12/06 03:43:47;;;;;;;35.08;13.38;;;4.30;88.30;;;;;;5094601;28;20052;-17
2022/12/06 03:46:45;;;;;;;36.10;14.43;;;4.40;88.20;;;;;;5094922;28;20025;-18
2022/12/06 03:49:19;;;;;;;50.70;16.58;;;4.40;88.10;;;;;;5211847;22;20060;-16
2022/12/06 03:51:46;;;;;;;59.92;18.25;;;4.50;88.10;;;;;;5054893;28;20484;-16
2022/12/06 03:54:12;;;;;;;89.68;19.05;;;4.60;88.00;;;;;;5054563;28;20580;-16
2022/12/06 03:56:38;;;;;;;65.60;16.85;;;4.60;87.80;;;;;;5054772;28;20024;-14
2022/12/06 03:59:09;;;;;;;70.55;17.15;;;4.80;87.70;;;;;;5125990;22;20059;-16
2022/12/06 04:01:37;;;;;;;83.05;18.27;;;4.80;87.70;;;;;;5094762;28;20028;-17
2022/12/06 04:04:04;;;;;;;114.65;21.85;;;4.90;87.70;;;;;;5094805;28;20466;-17
2022/12/06 04:06:30;;;;;;;107.90;20.10;;;4.90;87.60;;;;;;5094795;28;20107;-17
2022/12/06 04:11:40;;;;;;;72.97;17.88;;;4.90;87.70;;;;;;5094305;28;20044;-16
2022/12/06 04:14:06;;;;;;;100.50;20.65;;;4.90;87.70;;;;;;5094358;28;20107;-17
2022/12/06 04:19:17;;;;;;;56.50;16.42;;;4.90;87.80;;;;;;5094471;28;20230;-16
2022/12/06 04:24:27;;;;;;;97.53;18.08;;;4.80;87.90;;;;;;5094716;28;20035;-16
2022/12/06 04:28:40;;;;;;;55.63;16.08;;;4.80;88.00;;;;;;5092813;28;20024;-17
2022/12/06 04:40:41;;;;;;;80.03;17.13;;;4.70;88.20;;;;;;5094324;28;20560;-16
2022/12/06 04:45:54;;;;;;;94.53;16.40;;;4.60;88.30;;;;;;5094249;28;20076;-17
2022/12/06 04:48:20;;;;;;;96.80;16.75;;;4.70;88.30;;;;;;5094005;28;20094;-16
2022/12/06 04:50:50;;;;;;;80.68;15.50;;;4.60;88.30;;;;;;5093646;28;20016;-18
2022/12/06 04:53:17;;;;;;;97.70;16.30;;;4.60;88.40;;;;;;5093650;28;20487;-17
2022/12/06 04:55:47;;;;;;;109.80;17.27;;;4.40;88.40;;;;;;5093553;28;20561;-18
2022/12/06 04:58:13;;;;;;;99.68;16.25;;;4.40;88.40;;;;;;5093250;28;20055;-15
2022/12/06 05:00:46;;;;;;;88.15;16.30;;;4.40;88.50;;;;;;5093552;28;20078;-18
2022/12/06 05:03:13;;;;;;;50.37;14.40;;;4.30;88.60;;;;;;5093765;28;20035;-16
2022/12/06 05:05:41;;;;;;;98.15;16.48;;;4.30;88.60;;;;;;5093632;28;20451;-18
2022/12/06 05:08:08;;;;;;;50.58;12.57;;;4.30;88.70;;;;;;5093319;28;20552;-17
2022/12/06 05:10:34;;;;;;;29.85;10.88;;;4.20;88.70;;;;;;5093882;28;20020;-16
2022/12/06 05:13:00;;;;;;;58.47;11.52;;;4.20;88.70;;;;;;5093022;28;20458;-16
2022/12/06 05:15:28;;;;;;;71.07;14.57;;;4.20;88.80;;;;;;5093286;28;20373;-18
2022/12/06 05:17:55;;;;;;;60.83;14.93;;;4.20;88.90;;;;;;5093174;28;20024;-17
2022/12/06 05:20:21;;;;;;;44.08;10.60;;;4.30;89.00;;;;;;5093428;28;20032;-16
2022/12/06 05:22:47;;;;;;;68.28;13.45;;;4.30;89.00;;;;;;5092392;28;20024;-18
2022/12/06 05:25:13;;;;;;;72.50;14.25;;;4.30;89.10;;;;;;5093054;28;20028;-15
2022/12/06 05:27:40;;;;;;;49.20;13.20;;;4.30;89.10;;;;;;5092918;28;20399;-17
2022/12/06 05:30:08;;;;;;;53.78;12.75;;;4.30;89.10;;;;;;5092900;28;20414;-17
2022/12/06 05:32:34;;;;;;;104.93;16.25;;;4.30;89.10;;;;;;5093281;28;20036;-15
2022/12/06 05:35:01;;;;;;;77.00;13.45;;;4.30;89.10;;;;;;5164420;22;20067;-16
2022/12/06 05:37:26;;;;;;;43.13;12.93;;;4.30;89.10;;;;;;5073040;28;20028;-17
2022/12/06 05:39:52;;;;;;;82.85;14.27;;;4.30;89.10;;;;;;5054713;28;20391;-18
2022/12/06 05:42:18;;;;;;;26.42;9.57;;;4.30;89.10;;;;;;5072874;28;20016;-15
2022/12/06 05:44:44;;;;;;;27.15;10.10;;;4.30;89.10;;;;;;5073716;28;20023;-17
2022/12/06 05:47:11;;;;;;;87.40;15.65;;;4.20;89.10;;;;;;5200805;22;20595;-13
2022/12/06 05:49:37;;;;;;;65.95;13.40;;;4.30;89.10;;;;;;5092829;28;20046;-18
2022/12/06 05:52:03;;;;;;;45.17;13.82;;;4.30;89.10;;;;;;5092717;28;20118;-17
2022/12/06 05:54:29;;;;;;;69.78;14.48;;;4.20;89.10;;;;;;5091390;28;20050;-16
2022/12/06 05:56:55;;;;;;;73.60;13.40;;;4.20;89.20;;;;;;5092495;28;20562;-17
2022/12/06 05:59:21;;;;;;;30.13;10.20;;;4.20;89.20;;;;;;5092637;28;20119;-17
2022/12/06 06:01:47;;;;;;;64.35;13.52;;;4.20;89.20;;;;;;5092513;28;20032;-17
2022/12/06 06:04:13;;;;;;;82.90;14.00;;;4.20;89.20;;;;;;5092977;28;20106;-17
2022/12/06 06:06:39;;;;;;;60.35;13.00;;;4.20;89.20;;;;;;5092576;28;20497;-17
2022/12/06 06:09:05;;;;;;;70.07;13.25;;;4.20;89.20;;;;;;5092348;28;20571;-17
2022/12/06 06:11:31;;;;;;;49.65;12.05;;;4.20;89.20;;;;;;5202477;22;20135;-17
2022/12/06 06:13:57;;;;;;;48.60;11.93;;;4.10;89.20;;;;;;5072712;28;20025;-17
2022/12/06 06:16:23;;;;;;;44.95;11.70;;;4.10;89.20;;;;;;5072635;28;20130;-17
2022/12/06 06:18:49;;;;;;;76.38;12.50;;;4.00;89.20;;;;;;5072224;28;20499;-18
2022/12/06 06:21:15;;;;;;;30.65;10.68;;;3.90;89.20;;;;;;5072848;28;20055;-17
2022/12/06 06:23:41;;;;;;;41.50;12.25;;;3.90;89.20;;;;;;5072319;28;20046;-18
2022/12/06 06:26:09;;;;;;;44.65;11.38;;;3.90;89.20;;;;;;5072454;28;20031;-18
2022/12/06 06:28:35;;;;;;;37.00;10.47;;;3.90;89.20;;;;;;5206668;22;20055;-15
2022/12/06 06:31:05;;;;;;;55.15;11.55;;;3.90;89.20;;;;;;5050548;28;20041;-17
2022/12/06 06:35:59;;;;;;;38.63;11.25;;;3.80;89.30;;;;;;5323565;22;20045;-17
2022/12/06 06:38:25;;;;;;;29.35;10.30;;;3.80;89.30;;;;;;5055970;28;20056;-17
2022/12/06 06:40:51;;;;;;;40.47;11.35;;;3.80;89.40;;;;;;5055690;28;20029;-16
2022/12/06 06:43:17;;;;;;;46.35;11.88;;;3.80;89.40;;;;;;5149201;22;20024;-18
2022/12/06 06:46:13;;;;;;;35.53;11.18;;;3.80;89.40;;;;;;5152568;22;20109;-16
2022/12/06 06:48:39;;;;;;;55.00;11.77;;;3.80;89.40;;;;;;5365473;22;20027;-14
2022/12/06 06:51:08;;;;;;;43.67;11.32;;;3.80;89.40;;;;;;5055495;28;20041;-18
2022/12/06 06:53:34;;;;;;;34.70;9.50;;;3.80;89.40;;;;;;5323083;22;20090;-13
2022/12/06 06:56:00;;;;;;;55.70;12.35;;;3.80;89.40;;;;;;5096011;28;20024;-17
2022/12/06 06:58:26;;;;;;;59.40;12.82;;;3.80;89.50;;;;;;5096129;28;20051;-17
2022/12/06 07:01:00;;;;;;;41.35;10.65;;;3.90;89.50;;;;;;5095941;28;20368;-17
2022/12/06 07:03:26;;;;;;;48.75;12.07;;;3.90;89.60;;;;;;5096301;28;20146;-17
2022/12/06 07:06:02;;;;;;;29.27;10.63;;;3.90;89.60;;;;;;5096009;28;20052;-16
2022/12/06 07:08:30;;;;;;;33.50;11.48;;;3.90;89.60;;;;;;5095640;28;20374;-15
2022/12/06 07:10:56;;;;;;;53.83;11.50;;;4.00;89.60;;;;;;5095415;28;20035;-16
2022/12/06 07:13:24;;;;;;;51.08;12.05;;;4.10;89.60;;;;;;5095874;28;20020;-17
2022/12/06 07:15:51;;;;;;;46.53;11.07;;;4.10;89.70;;;;;;5094307;28;20165;-18
2022/12/06 07:18:18;;;;;;;29.75;9.95;;;4.20;89.70;;;;;;5095409;28;20035;-16
2022/12/06 07:20:48;;;;;;;40.58;10.68;;;4.20;89.70;;;;;;5095354;28;20359;-16
2022/12/06 07:23:15;;;;;;;53.20;12.65;;;4.30;89.60;;;;;;5095329;28;20050;-17
2022/12/06 07:25:41;;;;;;;69.20;14.18;;;4.30;89.60;;;;;;5095408;28;20028;-15
2022/12/06 07:28:07;;;;;;;32.78;11.15;;;4.20;89.50;;;;;;5095617;28;20016;-16
2022/12/06 07:30:33;;;;;;;51.17;11.45;;;4.10;89.30;;;;;;5095104;28;20491;-17
2022/12/06 07:32:59;;;;;;;69.38;13.15;;;4.10;89.30;;;;;;5095068;28;20024;-16
2022/12/06 07:35:25;;;;;;;47.25;11.65;;;4.00;89.30;;;;;;5096015;28;20035;-15
2022/12/06 07:37:51;;;;;;;43.00;11.90;;;4.00;89.30;;;;;;5095200;28;20028;-15
2022/12/06 07:40:17;;;;;;;38.45;12.05;;;4.00;89.30;;;;;;5096014;28;20107;-17
2022/12/06 07:45:27;;;;;;;;;;;4.00;89.30;;;;;;5094931;28;20039;-14
2022/12/06 07:47:53;;;;;;;53.70;15.77;;;4.00;89.30;;;;;;5094989;28;19904;-16
2022/12/06 07:50:22;;;;;;;26.88;11.85;;;4.00;89.30;;;;;;5095085;28;20039;-15
2022/12/06 07:52:49;;;;;;;32.83;12.38;;;3.90;89.30;;;;;;5095007;28;20032;-16
2022/12/06 07:55:16;;;;;;;49.08;13.65;;;3.90;89.30;;;;;;5094342;28;20055;-15
2022/12/06 07:57:43;;;;;;;40.33;12.80;;;3.90;89.30;;;;;;5094816;28;20036;-16
2022/12/06 08:00:12;;;;;;;62.35;12.40;;;3.90;89.30;;;;;;5178758;22;20045;-15
2022/12/06 08:02:38;;;;;;;22.33;10.20;;;3.90;89.20;;;;;;5074850;28;20021;-17
2022/12/06 08:05:05;;;;;;;114.70;16.10;;;3.90;89.20;;;;;;5074691;28;20024;-15
2022/12/06 08:07:31;;;;;;;59.75;12.93;;;3.80;89.20;;;;;;5056448;28;20107;-17
2022/12/06 08:09:57;;;;;;;57.00;10.95;;;3.80;89.30;;;;;;5074488;28;20111;-15
2022/12/06 08:12:22;;;;;;;58.10;11.32;;;3.90;89.30;;;;;;5074468;28;20028;-17
2022/12/06 08:14:48;;;;;;;49.55;12.30;;;4.00;89.50;;;;;;5073892;28;20453;-15
2022/12/06 08:17:14;;;;;;;35.17;10.63;;;4.00;89.50;;;;;;5074700;28;20021;-16
2022/12/06 08:19:40;;;;;;;44.05;10.90;;;4.10;89.50;;;;;;5074849;28;20024;-17
2022/12/06 08:22:06;;;;;;;47.30;10.63;;;4.10;89.40;;;;;;5074026;28;20476;-15
2022/12/06 08:24:32;;;;;;;31.83;9.52;;;4.20;89.50;;;;;;5073952;28;20024;-15
2022/12/06 08:26:59;;;;;;;44.55;10.75;;;4.30;89.40;;;;;;5163893;22;20113;-13
2022/12/06 08:29:25;;;;;;;58.50;12.13;;;4.40;89.40;;;;;;5094566;28;20047;-14
2022/12/06 08:31:51;;;;;;;50.00;11.10;;;4.30;89.30;;;;;;5094719;28;20097;-17
2022/12/06 08:34:17;;;;;;;43.92;10.38;;;4.30;89.20;;;;;;5092750;28;20063;-15
2022/12/06 08:36:44;;;;;;;45.22;10.50;;;4.40;89.20;;;;;;5093973;28;20471;-16
2022/12/06 08:39:12;;;;;;;44.83;10.32;;;4.40;89.20;;;;;;5093730;28;20028;-15
2022/12/06 08:44:26;;;;;;;49.75;12.02;;;4.60;88.90;;;;;;5219751;22;20055;-17
2022/12/06 08:46:53;;;;;;;53.38;11.90;;;4.70;88.60;;;;;;5111939;28;20037;-15
2022/12/06 08:49:20;;;;;;;41.35;11.90;;;4.80;88.40;;;;;;5113331;28;20493;-16
2022/12/06 08:51:46;;;;;;;37.30;12.18;;;4.80;88.30;;;;;;5111888;28;20023;-17
2022/12/06 08:54:15;;;;;;;63.85;14.88;;;4.90;88.10;;;;;;5113157;28;20080;-14
2022/12/06 08:56:42;;;;;;;25.75;12.38;;;5.00;88.20;;;;;;5180756;22;1426593;-17
2022/12/06 08:59:08;;;;;;;37.05;13.35;;;5.10;87.90;;;;;;5093451;28;20448;-16
2022/12/06 09:01:34;;;;;;;32.47;13.38;;;5.20;87.70;;;;;;5093472;28;20413;-16
2022/12/06 09:04:02;;;;;;;36.50;14.48;;;5.40;87.40;;;;;;5093544;28;20042;-15
2022/12/06 09:06:29;;;;;;;57.45;16.83;;;5.40;87.20;;;;;;5093341;28;20129;-16
2022/12/06 09:08:57;;;;;;;34.42;14.02;;;5.50;87.20;;;;;;5093220;28;20039;-16
2022/12/06 09:11:24;;;;;;;27.42;14.13;;;5.60;87.30;;;;;;5093404;28;20020;-15
2022/12/06 09:13:51;;;;;;;35.72;16.42;;;5.70;87.10;;;;;;5093477;28;20031;-15
2022/12/06 09:16:20;;;;;;;35.58;13.80;;;5.70;87.00;;;;;;5093475;28;20067;-14
2022/12/06 09:18:47;;;;;;;28.08;12.00;;;5.90;86.70;;;;;;5093196;28;20449;-17
2022/12/06 09:21:16;;;;;;;28.30;13.23;;;5.90;86.60;;;;;;5093682;28;20056;-17
2022/12/06 09:23:43;;;;;;;23.15;12.05;;;5.90;86.40;;;;;;5093415;28;20028;-16
2022/12/06 09:26:10;;;;;;;25.50;11.57;;;6.00;86.40;;;;;;5093585;28;20032;-15
2022/12/06 09:28:39;;;;;;;25.13;11.93;;;6.10;86.10;;;;;;5092961;28;20038;-17
2022/12/06 09:31:07;;;;;;;24.42;11.40;;;6.20;85.70;;;;;;5092989;28;20032;-17
2022/12/06 09:33:34;;;;;;;23.88;13.27;;;6.30;85.60;;;;;;5093560;28;20548;-17
2022/12/06 09:36:13;;;;;;;26.23;13.27;;;6.30;85.60;;;;;;5207821;22;20049;-17
2022/12/06 09:38:43;;;;;;;21.50;11.60;;;6.30;86.00;;;;;;5072835;28;20032;-15
2022/12/06 09:41:38;;;;;;;21.27;11.07;;;6.30;86.30;;;;;;5072545;28;20037;-18
2022/12/06 09:44:27;;;;;;;26.05;14.77;;;6.30;86.20;;;;;;5072710;28;20063;-16
2022/12/06 09:47:03;;;;;;;32.38;15.13;;;6.40;86.20;;;;;;5072441;28;20052;-17
2022/12/06 09:49:44;;;;;;;24.40;14.32;;;6.40;86.50;;;;;;5073090;28;20063;-15
2022/12/06 09:52:10;;;;;;;24.98;13.80;;;6.50;86.90;;;;;;5072990;28;20108;-16
2022/12/06 09:54:48;;;;;;;25.55;14.75;;;6.60;87.20;;;;;;5072787;28;20101;-17
2022/12/06 09:57:26;;;;;;;20.73;11.57;;;6.80;87.10;;;;;;5073255;28;20038;-17
2022/12/06 10:00:04;;;;;;;25.50;12.88;;;6.80;86.90;;;;;;5072973;28;20408;-15
2022/12/06 10:02:45;;;;;;;22.65;11.85;;;6.90;86.50;;;;;;5072707;28;20016;-15
2022/12/06 10:05:54;;;;;;;28.20;15.63;;;7.00;86.10;;;;;;5126158;22;20470;-16
2022/12/06 10:08:38;;;;;;;22.92;12.20;;;7.10;86.00;;;;;;5165081;22;20070;-17
2022/12/06 10:11:22;;;;;;;23.48;11.57;;;7.20;86.30;;;;;;5116952;28;20035;-15
2022/12/06 10:14:17;;;;;;;25.00;12.18;;;7.20;86.20;;;;;;5117421;28;20027;-16
2022/12/06 10:17:02;;;;;;;26.90;14.23;;;7.40;86.00;;;;;;5117726;28;20467;-16
2022/12/06 10:19:44;;;;;;;30.38;15.45;;;7.40;85.60;;;;;;5117368;28;20129;-18
2022/12/06 10:22:36;;;;;;;25.45;12.77;;;7.40;85.90;;;;;;5117049;28;20028;-17
2022/12/06 10:25:33;;;;;;;22.83;13.43;;;7.30;85.50;;;;;;5116899;28;20024;-16
2022/12/06 10:28:17;;;;;;;17.98;10.52;;;7.30;85.70;;;;;;5117263;28;20080;-16
2022/12/06 10:30:58;;;;;;;22.55;11.73;;;7.20;85.80;;;;;;5116990;28;20062;-15
2022/12/06 10:33:55;;;;;;;22.63;12.52;;;7.40;85.50;;;;;;5116795;28;20038;-17
2022/12/06 10:36:36;;;;;;;21.20;10.93;;;7.40;85.70;;;;;;5116919;28;20231;-15
2022/12/06 10:39:14;;;;;;;23.58;12.50;;;7.50;85.30;;;;;;5116595;28;20023;-16
2022/12/06 10:42:01;;;;;;;20.92;11.48;;;7.50;85.00;;;;;;5116608;28;20378;-18
2022/12/06 10:44:40;;;;;;;20.33;10.88;;;7.60;85.10;;;;;;5116817;28;20486;-15
2022/12/06 10:47:24;;;;;;;17.08;9.60;;;7.70;85.20;;;;;;5185210;22;20059;-14
2022/12/06 10:50:22;;;;;;;;;;;7.70;85.30;;;;;;5096862;28;20028;-16
2022/12/06 10:52:52;;;;;;;24.80;10.80;;;7.80;85.30;;;;;;5013732;28;19913;-15
2022/12/06 10:55:30;;;;;;;20.88;10.60;;;7.90;85.20;;;;;;5014261;28;20042;-15
2022/12/06 10:58:21;;;;;;;20.65;11.18;;;7.90;84.20;;;;;;5014526;28;20034;-15
2022/12/06 11:01:00;;;;;;;26.92;13.25;;;8.00;83.70;;;;;;4996984;28;20489;-16
2022/12/06 11:03:46;;;;;;;20.35;11.55;;;8.00;84.00;;;;;;5013997;28;20607;-16
2022/12/06 11:06:20;;;;;;;22.13;12.70;;;8.00;84.00;;;;;;5013781;28;20022;-15
2022/12/06 11:08:53;;;;;;;21.48;12.25;;;7.90;82.70;;;;;;5013468;28;20133;-17
2022/12/06 11:11:27;;;;;;;22.98;12.85;;;7.80;83.50;;;;;;5013553;28;20505;-16
2022/12/06 11:14:02;;;;;;;25.38;12.38;;;7.80;84.20;;;;;;5013917;28;20404;-17
2022/12/06 11:16:36;;;;;;;22.92;11.95;;;7.80;84.20;;;;;;5013531;28;20034;-16
2022/12/06 11:19:35;;;;;;;29.88;13.82;;;7.90;84.60;;;;;;5013237;28;20519;-17
2022/12/06 11:22:23;;;;;;;23.77;12.65;;;7.90;84.50;;;;;;5012954;28;20036;-16
2022/12/06 11:24:51;;;;;;;21.15;10.20;;;7.90;84.80;;;;;;5013184;28;20528;-16
2022/12/06 11:27:36;;;;;;;22.95;11.40;;;7.90;84.60;;;;;;5017689;28;20026;-16
2022/12/06 11:30:03;;;;;;;;;;;7.90;84.90;;;;;;5096015;28;20055;-15
2022/12/06 11:32:29;;;;;;;18.13;8.98;;;7.90;84.90;;;;;;5095642;28;19926;-16
2022/12/06 11:34:59;;;;;;;18.02;8.65;;;7.90;85.20;;;;;;5196314;22;20052;-15
2022/12/06 11:37:29;;;;;;;21.98;10.30;;;8.00;85.40;;;;;;5075319;28;20039;-17
2022/12/06 11:40:14;;;;;;;18.83;10.00;;;8.20;85.50;;;;;;5075262;28;20059;-18
2022/12/06 11:42:40;;;;;;;24.13;11.75;;;8.30;84.70;;;;;;5074917;28;20027;-16
2022/12/06 11:45:20;;;;;;;20.65;10.50;;;8.40;83.20;;;;;;5074531;28;20737;-16
2022/12/06 11:47:47;;;;;;;21.65;11.20;;;8.60;84.50;;;;;;5075555;28;20028;-15
2022/12/06 11:50:17;;;;;;;21.85;11.05;;;8.80;84.70;;;;;;5074531;28;20025;-16
2022/12/06 11:53:02;;;;;;;19.98;11.13;;;8.90;83.60;;;;;;5075021;28;20036;-17
2022/12/06 11:55:39;;;;;;;20.77;11.07;;;8.70;83.00;;;;;;5075156;28;20028;-15
2022/12/06 11:58:16;;;;;;;21.17;12.05;;;8.50;82.90;;;;;;5075344;28;20034;-14
2022/12/06 12:01:00;;;;;;;22.10;10.98;;;8.30;82.40;;;;;;5075122;28;20020;-18
2022/12/06 12:03:37;;;;;;;23.55;10.43;;;8.10;83.50;;;;;;5074346;28;20499;-16
2022/12/06 12:06:24;;;;;;;19.77;10.38;;;8.00;83.60;;;;;;5074879;28;20021;-14
2022/12/06 12:09:01;;;;;;;22.58;10.93;;;8.20;84.60;;;;;;5074094;28;20086;-18
2022/12/06 12:11:30;;;;;;;17.80;9.40;;;8.40;84.50;;;;;;5074595;28;20035;-16
2022/12/06 12:14:13;;;;;;;22.30;11.32;;;8.50;84.50;;;;;;5074551;28;20033;-17
2022/12/06 12:16:48;;;;;;;20.20;10.75;;;8.70;83.60;;;;;;5074226;28;20025;-15
2022/12/06 12:19:44;;;;;;;20.40;10.50;;;8.80;82.40;;;;;;5074001;28;20025;-15
2022/12/06 12:22:38;;;;;;;19.40;10.48;;;8.90;82.70;;;;;;5074340;28;20476;-15
2022/12/06 12:25:20;;;;;;;22.38;11.80;;;9.00;82.60;;;;;;5067503;28;20103;-17
2022/12/06 12:27:49;;;;;;;20.25;10.50;;;9.30;82.90;;;;;;5074513;28;20025;-16
2022/12/06 12:30:21;;;;;;;17.15;9.77;;;9.70;82.60;;;;;;5073863;28;20081;-16
2022/12/06 12:32:50;;;;;;;22.20;11.82;;;9.90;79.80;;;;;;5073689;28;20429;-15
2022/12/06 12:35:27;;;;;;;17.17;9.48;;;10.00;80.70;;;;;;5073488;28;20048;-13
2022/12/06 12:38:10;;;;;;;23.02;11.80;;;10.10;81.00;;;;;;5073772;28;20036;-14
2022/12/06 12:40:40;;;;;;;18.88;9.85;;;10.20;80.90;;;;;;5074509;28;20348;-15
2022/12/06 12:43:21;;;;;;;21.08;11.02;;;10.40;81.20;;;;;;5073788;28;20016;-17
2022/12/06 12:46:18;;;;;;;20.48;11.73;;;10.80;81.10;;;;;;5073905;28;20025;-16
2022/12/06 12:48:46;;;;;;;16.83;9.07;;;11.10;80.70;;;;;;5073629;28;20428;-15
2022/12/06 12:51:31;;;;;;;19.48;10.60;;;11.30;79.80;;;;;;5073441;28;20130;-15
2022/12/06 12:54:01;;;;;;;19.65;11.07;;;11.40;77.40;;;;;;5073822;28;20468;-16
2022/12/06 12:56:34;;;;;;;22.10;12.60;;;11.50;76.20;;;;;;5073366;28;20484;-16
2022/12/06 12:59:05;;;;;;;22.73;11.90;;;11.80;76.30;;;;;;5073224;28;20368;-15
2022/12/06 13:01:53;;;;;;;23.00;11.50;;;12.00;76.50;;;;;;5073625;28;20255;-13
2022/12/06 13:04:36;;;;;;;19.05;10.90;;;12.10;75.90;;;;;;5073132;28;20480;-15
2022/12/06 13:07:02;;;;;;;18.00;9.82;;;12.00;76.10;;;;;;5072956;28;20024;-15
2022/12/06 13:09:50;;;;;;;17.30;10.00;;;11.90;76.70;;;;;;5073501;28;20115;-15
2022/12/06 13:12:25;;;;;;;17.73;9.57;;;11.90;77.40;;;;;;5073295;28;20456;-16
2022/12/06 13:15:16;;;;;;;17.33;10.13;;;12.20;77.60;;;;;;5072973;28;20082;-15
2022/12/06 13:17:46;;;;;;;19.38;11.27;;;12.20;77.00;;;;;;5073297;28;20090;-15
2022/12/06 13:20:19;;;;;;;19.77;10.77;;;12.20;75.80;;;;;;5072945;28;20119;-14
2022/12/06 13:22:51;;;;;;;21.27;10.40;;;12.10;75.70;;;;;;5073309;28;20027;-14
2022/12/06 13:25:18;;;;;;;20.55;11.20;;;12.10;75.90;;;;;;5073250;28;20029;-16
2022/12/06 13:27:48;;;;;;;32.72;15.98;;;12.10;76.40;;;;;;5072888;28;20078;-15
2022/12/06 13:30:27;;;;;;;21.10;11.10;;;12.30;76.30;;;;;;5073007;28;20156;-16
2022/12/06 13:33:00;;;;;;;21.38;11.45;;;12.40;75.80;;;;;;5073022;28;20028;-15
2022/12/06 13:35:49;;;;;;;20.02;10.80;;;12.50;75.60;;;;;;5072519;28;20102;-15
2022/12/06 13:38:18;;;;;;;18.50;10.70;;;12.70;75.60;;;;;;5064620;28;20111;-15